sensor_id;sensor_type;location;lat;lon;timestamp;pressure;altitude;pressure_sealevel;temperature;humidity
77867;BME280;67271;59.120;37.970;2023-07-22T00:03:13;98863.34;;;13.66;71.33
77867;BME280;67271;59.120;37.970;2023-07-22T00:05:40;98864.19;;;13.67;71.11
77867;BME280;67271;59.120;37.970;2023-07-22T00:08:05;98852.97;;;13.63;71.60
77867;BME280;67271;59.120;37.970;2023-07-22T00:10:31;98865.16;;;13.61;71.30
77867;BME280;67271;59.120;37.970;2023-07-22T00:12:57;98862.94;;;13.57;71.39
77867;BME280;67271;59.120;37.970;2023-07-22T00:15:23;98864.47;;;13.53;71.65
77867;BME280;67271;59.120;37.970;2023-07-22T00:17:50;98855.84;;;13.56;71.63
77867;BME280;67271;59.120;37.970;2023-07-22T00:20:17;98860.69;;;13.54;71.78
77867;BME280;67271;59.120;37.970;2023-07-22T00:22:45;98860.63;;;13.49;71.79
77867;BME280;67271;59.120;37.970;2023-07-22T00:25:11;98863.94;;;13.51;71.98
77867;BME280;67271;59.120;37.970;2023-07-22T00:27:38;98862.53;;;13.49;71.78
77867;BME280;67271;59.120;37.970;2023-07-22T00:30:06;98868.19;;;13.47;72.16
77867;BME280;67271;59.120;37.970;2023-07-22T00:32:32;98869.59;;;13.50;72.08
77867;BME280;67271;59.120;37.970;2023-07-22T00:34:58;98862.53;;;13.49;72.09
77867;BME280;67271;59.120;37.970;2023-07-22T00:37:24;98877.19;;;13.48;71.90
77867;BME280;67271;59.120;37.970;2023-07-22T00:39:51;98869.84;;;13.48;72.06
77867;BME280;67271;59.120;37.970;2023-07-22T00:42:17;98862.22;;;13.45;71.74
77867;BME280;67271;59.120;37.970;2023-07-22T00:44:43;98878.75;;;13.44;71.89
77867;BME280;67271;59.120;37.970;2023-07-22T00:47:09;98868.94;;;13.43;72.08
77867;BME280;67271;59.120;37.970;2023-07-22T00:49:35;98877.34;;;13.41;72.17
77867;BME280;67271;59.120;37.970;2023-07-22T00:52:02;98870.25;;;13.40;72.35
77867;BME280;67271;59.120;37.970;2023-07-22T00:54:29;98881.13;;;13.40;72.28
77867;BME280;67271;59.120;37.970;2023-07-22T00:56:56;98874.03;;;13.39;72.08
77867;BME280;67271;59.120;37.970;2023-07-22T00:59:23;98868.88;;;13.38;72.14
77867;BME280;67271;59.120;37.970;2023-07-22T01:01:49;98871.31;;;13.39;72.26
77867;BME280;67271;59.120;37.970;2023-07-22T01:04:19;98871.06;;;13.41;72.37
77867;BME280;67271;59.120;37.970;2023-07-22T01:06:45;98875.44;;;13.42;72.41
77867;BME280;67271;59.120;37.970;2023-07-22T01:09:11;98870.59;;;13.44;72.39
77867;BME280;67271;59.120;37.970;2023-07-22T01:11:37;98883.94;;;13.45;72.57
77867;BME280;67271;59.120;37.970;2023-07-22T01:14:03;98880.97;;;13.47;72.09
77867;BME280;67271;59.120;37.970;2023-07-22T01:16:29;98878.50;;;13.45;72.12
77867;BME280;67271;59.120;37.970;2023-07-22T01:18:56;98883.19;;;13.50;72.32
77867;BME280;67271;59.120;37.970;2023-07-22T01:21:23;98885.91;;;13.50;72.14
77867;BME280;67271;59.120;37.970;2023-07-22T01:23:49;98886.75;;;13.50;72.11
77867;BME280;67271;59.120;37.970;2023-07-22T01:26:16;98886.50;;;13.52;72.32
77867;BME280;67271;59.120;37.970;2023-07-22T01:28:42;98881.06;;;13.52;72.07
77867;BME280;67271;59.120;37.970;2023-07-22T01:31:08;98890.88;;;13.53;72.30
77867;BME280;67271;59.120;37.970;2023-07-22T01:33:34;98891.19;;;13.56;72.08
77867;BME280;67271;59.120;37.970;2023-07-22T01:36:01;98885.75;;;13.56;72.18
77867;BME280;67271;59.120;37.970;2023-07-22T01:38:27;98889.06;;;13.59;72.27
77867;BME280;67271;59.120;37.970;2023-07-22T01:40:55;98887.22;;;13.64;72.06
77867;BME280;67271;59.120;37.970;2023-07-22T01:43:21;98893.56;;;13.70;72.09
77867;BME280;67271;59.120;37.970;2023-07-22T01:45:47;98889.28;;;13.74;71.81
77867;BME280;67271;59.120;37.970;2023-07-22T01:48:13;98900.47;;;13.77;72.04
77867;BME280;67271;59.120;37.970;2023-07-22T01:50:39;98897.75;;;13.77;71.90
77867;BME280;67271;59.120;37.970;2023-07-22T01:53:05;98898.09;;;13.81;71.80
77867;BME280;67271;59.120;37.970;2023-07-22T01:55:32;98889.53;;;13.89;71.52
77867;BME280;67271;59.120;37.970;2023-07-22T01:57:58;98895.88;;;13.94;71.52
77867;BME280;67271;59.120;37.970;2023-07-22T02:00:24;98896.44;;;13.97;71.44
77867;BME280;67271;59.120;37.970;2023-07-22T02:02:50;98905.75;;;14.01;71.61
77867;BME280;67271;59.120;37.970;2023-07-22T02:05:16;98897.94;;;14.04;71.35
77867;BME280;67271;59.120;37.970;2023-07-22T02:07:42;98897.41;;;14.07;71.32
77867;BME280;67271;59.120;37.970;2023-07-22T02:10:08;98901.06;;;14.13;71.17
77867;BME280;67271;59.120;37.970;2023-07-22T02:12:35;98904.13;;;14.21;70.97
77867;BME280;67271;59.120;37.970;2023-07-22T02:15:01;98895.72;;;14.23;71.14
77867;BME280;67271;59.120;37.970;2023-07-22T02:17:28;98891.44;;;14.27;71.07
77867;BME280;67271;59.120;37.970;2023-07-22T02:19:56;98902.47;;;14.37;70.70
77867;BME280;67271;59.120;37.970;2023-07-22T02:22:22;98898.25;;;14.46;70.41
77867;BME280;67271;59.120;37.970;2023-07-22T02:24:48;98888.09;;;14.58;70.25
77867;BME280;67271;59.120;37.970;2023-07-22T02:27:14;98881.34;;;14.66;69.88
77867;BME280;67271;59.120;37.970;2023-07-22T02:29:40;98878.13;;;14.69;69.95
77867;BME280;67271;59.120;37.970;2023-07-22T02:32:06;98892.94;;;14.78;69.77
77867;BME280;67271;59.120;37.970;2023-07-22T02:34:32;98891.97;;;14.89;69.49
77867;BME280;67271;59.120;37.970;2023-07-22T02:37:00;98894.00;;;14.99;69.40
77867;BME280;67271;59.120;37.970;2023-07-22T02:39:26;98899.31;;;15.10;68.87
77867;BME280;67271;59.120;37.970;2023-07-22T02:41:52;98891.59;;;15.29;68.78
77867;BME280;67271;59.120;37.970;2023-07-22T02:44:18;98901.59;;;15.77;67.55
77867;BME280;67271;59.120;37.970;2023-07-22T02:46:43;98880.41;;;16.94;64.90
77867;BME280;67271;59.120;37.970;2023-07-22T02:49:09;98886.22;;;18.39;61.46
77867;BME280;67271;59.120;37.970;2023-07-22T02:51:35;98892.56;;;19.53;58.88
77867;BME280;67271;59.120;37.970;2023-07-22T02:54:01;98899.88;;;20.78;56.54
77867;BME280;67271;59.120;37.970;2023-07-22T02:56:27;98887.50;;;21.75;54.52
77867;BME280;67271;59.120;37.970;2023-07-22T02:58:53;98895.47;;;22.68;52.92
77867;BME280;67271;59.120;37.970;2023-07-22T03:01:19;98895.88;;;23.03;52.29
77867;BME280;67271;59.120;37.970;2023-07-22T03:03:45;98891.03;;;23.36;52.00
77867;BME280;67271;59.120;37.970;2023-07-22T03:06:10;98890.88;;;23.54;51.49
77867;BME280;67271;59.120;37.970;2023-07-22T03:08:37;98891.75;;;24.30;50.12
77867;BME280;67271;59.120;37.970;2023-07-22T03:11:02;98899.41;;;25.13;48.92
77867;BME280;67271;59.120;37.970;2023-07-22T03:13:29;98899.47;;;25.38;48.06
77867;BME280;67271;59.120;37.970;2023-07-22T03:15:56;98900.59;;;25.29;48.30
77867;BME280;67271;59.120;37.970;2023-07-22T03:18:22;98895.13;;;25.63;47.73
77867;BME280;67271;59.120;37.970;2023-07-22T03:20:48;98894.75;;;25.91;47.37
77867;BME280;67271;59.120;37.970;2023-07-22T03:23:14;98892.91;;;26.12;47.32
77867;BME280;67271;59.120;37.970;2023-07-22T03:25:40;98904.09;;;24.95;48.78
77867;BME280;67271;59.120;37.970;2023-07-22T03:28:06;98910.84;;;24.18;50.12
77867;BME280;67271;59.120;37.970;2023-07-22T03:30:33;98904.75;;;23.63;50.77
77867;BME280;67271;59.120;37.970;2023-07-22T03:32:59;98907.41;;;22.50;52.63
77867;BME280;67271;59.120;37.970;2023-07-22T03:35:26;98922.59;;;21.32;55.02
77867;BME280;67271;59.120;37.970;2023-07-22T03:37:52;98925.88;;;20.38;56.65
77867;BME280;67271;59.120;37.970;2023-07-22T03:40:18;98915.66;;;19.81;57.71
77867;BME280;67271;59.120;37.970;2023-07-22T03:42:54;98921.72;;;19.34;58.81
77867;BME280;67271;59.120;37.970;2023-07-22T03:45:21;98920.59;;;18.91;59.63
77867;BME280;67271;59.120;37.970;2023-07-22T03:47:52;98923.41;;;18.71;59.85
77867;BME280;67271;59.120;37.970;2023-07-22T03:50:18;98929.47;;;18.63;59.62
77867;BME280;67271;59.120;37.970;2023-07-22T03:52:44;98931.41;;;18.47;59.95
77867;BME280;67271;59.120;37.970;2023-07-22T03:55:10;98932.25;;;18.27;60.17
77867;BME280;67271;59.120;37.970;2023-07-22T03:57:36;98927.63;;;18.07;60.73
77867;BME280;67271;59.120;37.970;2023-07-22T04:00:03;98932.00;;;17.93;60.94
77867;BME280;67271;59.120;37.970;2023-07-22T04:02:38;98933.09;;;17.72;61.28
77867;BME280;67271;59.120;37.970;2023-07-22T04:05:04;98936.09;;;17.70;61.18
77867;BME280;67271;59.120;37.970;2023-07-22T04:07:38;98936.38;;;17.64;61.22
77867;BME280;67271;59.120;37.970;2023-07-22T04:10:05;98937.47;;;17.68;61.04
77867;BME280;67271;59.120;37.970;2023-07-22T04:12:31;98932.56;;;17.65;61.36
77867;BME280;67271;59.120;37.970;2023-07-22T04:14:57;98927.59;;;17.67;61.21
77867;BME280;67271;59.120;37.970;2023-07-22T04:17:23;98935.22;;;17.60;61.29
77867;BME280;67271;59.120;37.970;2023-07-22T04:19:51;98926.50;;;17.68;61.11
77867;BME280;67271;59.120;37.970;2023-07-22T04:22:17;98935.28;;;17.80;60.84
77867;BME280;67271;59.120;37.970;2023-07-22T04:24:43;98938.03;;;18.00;60.38
77867;BME280;67271;59.120;37.970;2023-07-22T04:27:09;98932.50;;;18.46;59.18
77867;BME280;67271;59.120;37.970;2023-07-22T04:29:35;98931.53;;;19.50;57.14
77867;BME280;67271;59.120;37.970;2023-07-22T04:32:06;98937.28;;;21.22;53.63
77867;BME280;67271;59.120;37.970;2023-07-22T04:34:32;98952.47;;;21.19;54.02
77867;BME280;67271;59.120;37.970;2023-07-22T04:36:58;98952.91;;;20.55;55.59
77867;BME280;67271;59.120;37.970;2023-07-22T04:39:24;98935.88;;;20.24;56.26
77867;BME280;67271;59.120;37.970;2023-07-22T04:41:51;98958.44;;;20.21;56.36
77867;BME280;67271;59.120;37.970;2023-07-22T04:44:18;98951.75;;;20.61;55.49
77867;BME280;67271;59.120;37.970;2023-07-22T04:46:44;98954.69;;;20.94;55.10
77867;BME280;67271;59.120;37.970;2023-07-22T04:49:10;98957.00;;;21.05;54.74
77867;BME280;67271;59.120;37.970;2023-07-22T04:51:36;98955.59;;;20.60;55.66
77867;BME280;67271;59.120;37.970;2023-07-22T04:54:02;98959.00;;;20.52;55.74
77867;BME280;67271;59.120;37.970;2023-07-22T04:56:28;98956.56;;;21.22;54.59
77867;BME280;67271;59.120;37.970;2023-07-22T04:58:54;98946.00;;;21.67;53.27
77867;BME280;67271;59.120;37.970;2023-07-22T05:01:20;98946.13;;;22.13;52.74
77867;BME280;67271;59.120;37.970;2023-07-22T05:03:45;98949.22;;;23.26;50.99
77867;BME280;67271;59.120;37.970;2023-07-22T05:06:14;98953.75;;;23.08;51.34
77867;BME280;67271;59.120;37.970;2023-07-22T05:08:39;98956.75;;;22.65;52.07
77867;BME280;67271;59.120;37.970;2023-07-22T05:11:06;98951.31;;;22.00;53.42
77867;BME280;67271;59.120;37.970;2023-07-22T05:13:33;98945.34;;;21.75;54.04
77867;BME280;67271;59.120;37.970;2023-07-22T05:15:59;98949.97;;;21.79;54.13
77867;BME280;67271;59.120;37.970;2023-07-22T05:18:24;98953.88;;;21.73;54.09
77867;BME280;67271;59.120;37.970;2023-07-22T05:20:50;98959.72;;;21.34;54.98
77867;BME280;67271;59.120;37.970;2023-07-22T05:23:16;98949.66;;;21.01;55.65
77867;BME280;67271;59.120;37.970;2023-07-22T05:25:42;98953.78;;;20.98;55.31
77867;BME280;67271;59.120;37.970;2023-07-22T05:28:08;98952.22;;;20.92;55.44
77867;BME280;67271;59.120;37.970;2023-07-22T05:30:34;98958.06;;;20.62;56.19
77867;BME280;67271;59.120;37.970;2023-07-22T05:33:00;98956.91;;;20.44;56.38
77867;BME280;67271;59.120;37.970;2023-07-22T05:35:25;98948.41;;;20.40;56.47
77867;BME280;67271;59.120;37.970;2023-07-22T05:37:51;98944.59;;;20.31;56.51
77867;BME280;67271;59.120;37.970;2023-07-22T05:40:17;98951.31;;;20.20;56.68
77867;BME280;67271;59.120;37.970;2023-07-22T05:42:43;98944.75;;;20.16;56.92
77867;BME280;67271;59.120;37.970;2023-07-22T05:45:09;98948.66;;;20.10;57.33
77867;BME280;67271;59.120;37.970;2023-07-22T05:47:39;98948.78;;;19.95;57.34
77867;BME280;67271;59.120;37.970;2023-07-22T05:50:05;98954.03;;;19.91;57.50
77867;BME280;67271;59.120;37.970;2023-07-22T05:52:32;98951.09;;;19.78;57.97
77867;BME280;67271;59.120;37.970;2023-07-22T05:54:59;98953.59;;;19.74;57.87
77867;BME280;67271;59.120;37.970;2023-07-22T05:57:25;98958.28;;;19.74;57.61
77867;BME280;67271;59.120;37.970;2023-07-22T05:59:50;98944.28;;;19.75;57.27
77867;BME280;67271;59.120;37.970;2023-07-22T06:02:17;98947.78;;;19.81;57.18
77867;BME280;67271;59.120;37.970;2023-07-22T06:04:44;98956.28;;;20.18;56.37
77867;BME280;67271;59.120;37.970;2023-07-22T06:07:10;98948.81;;;20.53;55.52
77867;BME280;67271;59.120;37.970;2023-07-22T06:09:35;98944.03;;;20.87;54.86
77867;BME280;67271;59.120;37.970;2023-07-22T06:12:01;98940.88;;;21.22;54.53
77867;BME280;67271;59.120;37.970;2023-07-22T06:14:28;98939.69;;;21.66;53.47
77867;BME280;67271;59.120;37.970;2023-07-22T06:16:55;98941.13;;;21.96;53.23
77867;BME280;67271;59.120;37.970;2023-07-22T06:19:21;98938.97;;;22.12;52.82
77867;BME280;67271;59.120;37.970;2023-07-22T06:21:49;98944.44;;;21.98;53.30
77867;BME280;67271;59.120;37.970;2023-07-22T06:24:15;98938.78;;;21.89;53.73
77867;BME280;67271;59.120;37.970;2023-07-22T06:26:41;98939.28;;;21.91;53.53
77867;BME280;67271;59.120;37.970;2023-07-22T06:29:07;98931.41;;;21.66;54.17
77867;BME280;67271;59.120;37.970;2023-07-22T06:31:33;98946.69;;;21.16;54.57
77867;BME280;67271;59.120;37.970;2023-07-22T06:33:59;98948.28;;;20.98;54.88
77867;BME280;67271;59.120;37.970;2023-07-22T06:36:26;98939.13;;;20.84;54.70
77867;BME280;67271;59.120;37.970;2023-07-22T06:38:52;98940.94;;;20.94;54.66
77867;BME280;67271;59.120;37.970;2023-07-22T06:41:17;98936.84;;;20.67;55.08
77867;BME280;67271;59.120;37.970;2023-07-22T06:43:44;98929.91;;;20.75;55.02
77867;BME280;67271;59.120;37.970;2023-07-22T06:46:10;98933.88;;;20.88;54.74
77867;BME280;67271;59.120;37.970;2023-07-22T06:48:36;98935.25;;;20.85;54.33
77867;BME280;67271;59.120;37.970;2023-07-22T06:51:02;98943.56;;;20.80;54.78
77867;BME280;67271;59.120;37.970;2023-07-22T06:53:28;98943.84;;;21.02;54.24
77867;BME280;67271;59.120;37.970;2023-07-22T06:55:54;98955.53;;;21.13;54.18
77867;BME280;67271;59.120;37.970;2023-07-22T06:58:20;98940.28;;;21.26;53.86
77867;BME280;67271;59.120;37.970;2023-07-22T07:00:52;98948.09;;;21.37;53.54
77867;BME280;67271;59.120;37.970;2023-07-22T07:03:18;98947.22;;;21.60;53.00
77867;BME280;67271;59.120;37.970;2023-07-22T07:05:43;98953.66;;;21.88;52.63
77867;BME280;67271;59.120;37.970;2023-07-22T07:08:10;98948.66;;;22.42;51.88
77867;BME280;67271;59.120;37.970;2023-07-22T07:10:37;98946.94;;;23.41;50.25
77867;BME280;67271;59.120;37.970;2023-07-22T07:13:03;98953.06;;;23.38;50.13
77867;BME280;67271;59.120;37.970;2023-07-22T07:15:29;98954.44;;;23.77;49.46
77867;BME280;67271;59.120;37.970;2023-07-22T07:17:55;98953.50;;;24.79;47.74
77867;BME280;67271;59.120;37.970;2023-07-22T07:20:21;98954.19;;;24.54;47.77
77867;BME280;67271;59.120;37.970;2023-07-22T07:22:47;98954.56;;;24.61;47.83
77867;BME280;67271;59.120;37.970;2023-07-22T07:25:13;98960.41;;;25.47;46.57
77867;BME280;67271;59.120;37.970;2023-07-22T07:27:41;98962.41;;;25.72;46.00
77867;BME280;67271;59.120;37.970;2023-07-22T07:30:07;98943.34;;;25.97;45.17
77867;BME280;67271;59.120;37.970;2023-07-22T07:32:34;98948.13;;;26.69;44.44
77867;BME280;67271;59.120;37.970;2023-07-22T07:35:00;98951.41;;;27.09;44.12
77867;BME280;67271;59.120;37.970;2023-07-22T07:37:26;98958.78;;;27.34;43.48
77867;BME280;67271;59.120;37.970;2023-07-22T07:39:52;98959.47;;;27.52;42.96
77867;BME280;67271;59.120;37.970;2023-07-22T07:42:18;98953.91;;;27.52;43.04
77867;BME280;67271;59.120;37.970;2023-07-22T07:44:44;98956.25;;;27.20;43.73
77867;BME280;67271;59.120;37.970;2023-07-22T07:47:10;98951.16;;;26.84;43.75
77867;BME280;67271;59.120;37.970;2023-07-22T07:49:35;98957.97;;;27.04;43.87
77867;BME280;67271;59.120;37.970;2023-07-22T07:52:01;98958.13;;;26.99;43.71
77867;BME280;67271;59.120;37.970;2023-07-22T07:54:28;98948.38;;;27.22;43.06
77867;BME280;67271;59.120;37.970;2023-07-22T07:56:53;98950.69;;;27.50;42.89
77867;BME280;67271;59.120;37.970;2023-07-22T07:59:19;98952.19;;;27.68;42.14
77867;BME280;67271;59.120;37.970;2023-07-22T08:01:45;98942.13;;;27.34;42.68
77867;BME280;67271;59.120;37.970;2023-07-22T08:04:11;98958.75;;;27.13;42.77
77867;BME280;67271;59.120;37.970;2023-07-22T08:06:37;98961.00;;;26.73;43.30
77867;BME280;67271;59.120;37.970;2023-07-22T08:09:03;98950.31;;;26.46;43.57
77867;BME280;67271;59.120;37.970;2023-07-22T08:11:30;98970.91;;;25.76;43.98
77867;BME280;67271;59.120;37.970;2023-07-22T08:13:56;98959.41;;;25.34;44.35
77867;BME280;67271;59.120;37.970;2023-07-22T08:16:24;98951.03;;;25.09;44.54
77867;BME280;67271;59.120;37.970;2023-07-22T08:18:50;98965.75;;;24.87;44.86
77867;BME280;67271;59.120;37.970;2023-07-22T08:21:16;98960.81;;;24.75;44.95
77867;BME280;67271;59.120;37.970;2023-07-22T08:23:42;98962.84;;;24.61;44.89
77867;BME280;67271;59.120;37.970;2023-07-22T08:26:11;98968.41;;;24.39;44.92
77867;BME280;67271;59.120;37.970;2023-07-22T08:28:37;98962.63;;;24.49;44.48
77867;BME280;67271;59.120;37.970;2023-07-22T08:31:03;98963.88;;;24.65;44.22
77867;BME280;67271;59.120;37.970;2023-07-22T08:33:29;98966.81;;;24.99;43.67
77867;BME280;67271;59.120;37.970;2023-07-22T08:35:55;98963.59;;;25.15;43.32
77867;BME280;67271;59.120;37.970;2023-07-22T08:38:21;98967.38;;;24.88;43.62
77867;BME280;67271;59.120;37.970;2023-07-22T08:40:49;98976.72;;;24.69;43.70
77867;BME280;67271;59.120;37.970;2023-07-22T08:43:19;98971.44;;;24.28;43.99
77867;BME280;67271;59.120;37.970;2023-07-22T08:45:47;98967.69;;;23.66;44.23
77867;BME280;67271;59.120;37.970;2023-07-22T08:48:16;98970.31;;;23.71;44.05
77867;BME280;67271;59.120;37.970;2023-07-22T08:51:02;98970.44;;;23.66;43.64
77867;BME280;67271;59.120;37.970;2023-07-22T08:53:30;98978.84;;;23.47;44.07
77867;BME280;67271;59.120;37.970;2023-07-22T08:55:56;98971.28;;;23.39;44.04
77867;BME280;67271;59.120;37.970;2023-07-22T08:58:24;98971.19;;;23.44;43.71
77867;BME280;67271;59.120;37.970;2023-07-22T09:00:50;98972.44;;;23.52;43.60
77867;BME280;67271;59.120;37.970;2023-07-22T09:03:16;98973.50;;;23.65;43.33
77867;BME280;67271;59.120;37.970;2023-07-22T09:05:45;98981.94;;;23.60;43.73
77867;BME280;67271;59.120;37.970;2023-07-22T09:08:10;98973.69;;;23.68;43.56
77867;BME280;67271;59.120;37.970;2023-07-22T09:10:37;98973.69;;;23.82;43.11
77867;BME280;67271;59.120;37.970;2023-07-22T09:13:03;98980.19;;;23.86;42.82
77867;BME280;67271;59.120;37.970;2023-07-22T09:15:32;98973.09;;;23.93;42.97
77867;BME280;67271;59.120;37.970;2023-07-22T09:18:00;98972.97;;;23.99;43.13
77867;BME280;67271;59.120;37.970;2023-07-22T09:20:26;98971.97;;;23.95;43.12
77867;BME280;67271;59.120;37.970;2023-07-22T09:22:54;98977.66;;;23.76;43.73
77867;BME280;67271;59.120;37.970;2023-07-22T09:25:21;98983.56;;;23.97;43.41
77867;BME280;67271;59.120;37.970;2023-07-22T09:27:49;98976.66;;;24.30;43.05
77867;BME280;67271;59.120;37.970;2023-07-22T09:30:24;98979.47;;;24.39;43.06
77867;BME280;67271;59.120;37.970;2023-07-22T09:32:50;98989.09;;;24.41;43.42
77867;BME280;67271;59.120;37.970;2023-07-22T09:35:17;98988.88;;;24.15;43.65
77867;BME280;67271;59.120;37.970;2023-07-22T09:37:44;98978.22;;;24.22;43.64
77867;BME280;67271;59.120;37.970;2023-07-22T09:40:15;98981.91;;;24.18;43.76
77867;BME280;67271;59.120;37.970;2023-07-22T09:42:51;98979.25;;;24.26;43.93
77867;BME280;67271;59.120;37.970;2023-07-22T09:45:18;98995.44;;;24.64;43.39
77867;BME280;67271;59.120;37.970;2023-07-22T09:47:46;98990.38;;;24.66;43.42
77867;BME280;67271;59.120;37.970;2023-07-22T09:50:18;98992.47;;;24.60;43.61
77867;BME280;67271;59.120;37.970;2023-07-22T09:55:15;98986.19;;;24.02;44.32
77867;BME280;67271;59.120;37.970;2023-07-22T09:57:44;98986.19;;;23.66;45.13
77867;BME280;67271;59.120;37.970;2023-07-22T10:00:13;98987.09;;;23.75;44.89
77867;BME280;67271;59.120;37.970;2023-07-22T10:02:40;98986.47;;;23.78;44.68
77867;BME280;67271;59.120;37.970;2023-07-22T10:05:10;99000.25;;;24.14;44.12
77867;BME280;67271;59.120;37.970;2023-07-22T10:07:37;98986.81;;;24.65;43.25
77867;BME280;67271;59.120;37.970;2023-07-22T10:10:06;99001.38;;;24.80;42.74
77867;BME280;67271;59.120;37.970;2023-07-22T10:12:32;98997.78;;;24.79;42.70
77867;BME280;67271;59.120;37.970;2023-07-22T10:15:07;99003.47;;;24.83;42.60
77867;BME280;67271;59.120;37.970;2023-07-22T10:17:33;98994.72;;;24.89;42.59
77867;BME280;67271;59.120;37.970;2023-07-22T10:20:03;99001.63;;;24.92;42.50
77867;BME280;67271;59.120;37.970;2023-07-22T10:22:37;98999.69;;;24.70;42.90
77867;BME280;67271;59.120;37.970;2023-07-22T10:25:06;98999.91;;;24.82;43.08
77867;BME280;67271;59.120;37.970;2023-07-22T10:27:35;98991.38;;;24.92;42.70
77867;BME280;67271;59.120;37.970;2023-07-22T10:30:02;98987.31;;;24.98;42.46
77867;BME280;67271;59.120;37.970;2023-07-22T10:32:52;98993.22;;;24.83;42.74
77867;BME280;67271;59.120;37.970;2023-07-22T10:38:07;98986.19;;;24.99;42.56
77867;BME280;67271;59.120;37.970;2023-07-22T10:40:49;98974.00;;;24.78;42.67
77867;BME280;67271;59.120;37.970;2023-07-22T10:43:16;98988.88;;;24.60;43.26
77867;BME280;67271;59.120;37.970;2023-07-22T10:45:51;98984.19;;;24.16;43.93
77867;BME280;67271;59.120;37.970;2023-07-22T10:48:17;98999.09;;;23.57;44.77
77867;BME280;67271;59.120;37.970;2023-07-22T10:50:49;99003.72;;;23.06;45.34
77867;BME280;67271;59.120;37.970;2023-07-22T10:56:03;99004.63;;;22.56;45.53
77867;BME280;67271;59.120;37.970;2023-07-22T10:58:31;98997.28;;;23.11;44.83
77867;BME280;67271;59.120;37.970;2023-07-22T11:01:33;98989.19;;;23.56;44.20
77867;BME280;67271;59.120;37.970;2023-07-22T11:12:08;99001.16;;;23.51;44.26
77867;BME280;67271;59.120;37.970;2023-07-22T11:14:45;98998.50;;;23.32;44.95
77867;BME280;67271;59.120;37.970;2023-07-22T11:17:11;98999.31;;;23.33;44.84
77867;BME280;67271;59.120;37.970;2023-07-22T11:19:37;98997.25;;;23.38;44.88
77867;BME280;67271;59.120;37.970;2023-07-22T11:22:04;98992.25;;;23.54;44.58
77867;BME280;67271;59.120;37.970;2023-07-22T11:24:33;98988.19;;;23.51;44.90
77867;BME280;67271;59.120;37.970;2023-07-22T11:27:04;99002.59;;;23.21;45.20
77867;BME280;67271;59.120;37.970;2023-07-22T11:29:30;98983.38;;;23.16;45.08
77867;BME280;67271;59.120;37.970;2023-07-22T11:31:57;99001.56;;;23.03;45.13
77867;BME280;67271;59.120;37.970;2023-07-22T11:34:24;98998.22;;;22.93;45.31
77867;BME280;67271;59.120;37.970;2023-07-22T11:36:51;98997.81;;;23.13;44.84
77867;BME280;67271;59.120;37.970;2023-07-22T11:39:19;98991.13;;;23.41;44.33
77867;BME280;67271;59.120;37.970;2023-07-22T11:41:46;98996.66;;;23.41;44.71
77867;BME280;67271;59.120;37.970;2023-07-22T11:44:14;99007.91;;;23.59;44.35
77867;BME280;67271;59.120;37.970;2023-07-22T11:47:00;99008.13;;;23.84;44.09
77867;BME280;67271;59.120;37.970;2023-07-22T11:52:02;99005.53;;;24.02;43.75
77867;BME280;67271;59.120;37.970;2023-07-22T11:54:29;99009.72;;;23.99;44.14
77867;BME280;67271;59.120;37.970;2023-07-22T11:56:56;99014.75;;;23.75;44.56
77867;BME280;67271;59.120;37.970;2023-07-22T11:59:39;99021.63;;;23.36;45.24
77867;BME280;67271;59.120;37.970;2023-07-22T12:02:05;99028.78;;;23.37;45.44
77867;BME280;67271;59.120;37.970;2023-07-22T12:04:33;99031.53;;;23.10;46.15
77867;BME280;67271;59.120;37.970;2023-07-22T12:07:00;99033.03;;;22.75;46.75
77867;BME280;67271;59.120;37.970;2023-07-22T12:09:26;99030.38;;;22.51;47.19
77867;BME280;67271;59.120;37.970;2023-07-22T12:11:57;99022.94;;;22.33;47.58
77867;BME280;67271;59.120;37.970;2023-07-22T12:14:24;99021.66;;;22.44;47.32
77867;BME280;67271;59.120;37.970;2023-07-22T12:16:55;99017.97;;;22.35;47.62
77867;BME280;67271;59.120;37.970;2023-07-22T12:19:27;99010.66;;;22.25;47.97
77867;BME280;67271;59.120;37.970;2023-07-22T12:21:53;99013.53;;;22.20;48.25
77867;BME280;67271;59.120;37.970;2023-07-22T12:24:19;99006.50;;;22.28;48.14
77867;BME280;67271;59.120;37.970;2023-07-22T12:26:45;99009.38;;;22.55;47.42
77867;BME280;67271;59.120;37.970;2023-07-22T12:29:11;99003.38;;;22.81;47.31
77867;BME280;67271;59.120;37.970;2023-07-22T12:31:36;98999.31;;;23.19;46.97
77867;BME280;67271;59.120;37.970;2023-07-22T12:34:02;98986.25;;;23.52;46.30
77867;BME280;67271;59.120;37.970;2023-07-22T12:36:28;98980.34;;;24.03;45.55
77867;BME280;67271;59.120;37.970;2023-07-22T12:38:54;98997.47;;;24.14;45.49
77867;BME280;67271;59.120;37.970;2023-07-22T12:41:20;98994.00;;;24.22;45.30
77867;BME280;67271;59.120;37.970;2023-07-22T12:43:46;98989.38;;;24.62;44.83
77867;BME280;67271;59.120;37.970;2023-07-22T12:46:12;98991.44;;;24.79;44.15
77867;BME280;67271;59.120;37.970;2023-07-22T12:48:38;98998.91;;;24.25;44.84
77867;BME280;67271;59.120;37.970;2023-07-22T12:51:04;99000.56;;;23.90;45.35
77867;BME280;67271;59.120;37.970;2023-07-22T12:53:30;99007.09;;;23.58;45.22
77867;BME280;67271;59.120;37.970;2023-07-22T12:55:56;99008.13;;;23.48;45.17
77867;BME280;67271;59.120;37.970;2023-07-22T12:58:21;99006.69;;;23.37;45.41
77867;BME280;67271;59.120;37.970;2023-07-22T13:00:48;99009.44;;;23.24;45.67
77867;BME280;67271;59.120;37.970;2023-07-22T13:03:16;99013.03;;;22.97;46.04
77867;BME280;67271;59.120;37.970;2023-07-22T13:05:42;99012.53;;;22.62;46.47
77867;BME280;67271;59.120;37.970;2023-07-22T13:08:07;99003.38;;;22.48;46.75
77867;BME280;67271;59.120;37.970;2023-07-22T13:10:33;99008.91;;;22.48;46.35